createdAt,value
2019-02-23T00:00:58.395Z,6.08
2019-02-23T00:03:25.134Z,6.09
2019-02-23T00:05:51.850Z,6.08
2019-02-23T00:08:18.711Z,6.04
2019-02-23T00:10:45.437Z,6.12
2019-02-23T00:13:12.171Z,6.09
2019-02-23T00:15:38.882Z,6.02
2019-02-23T00:18:05.626Z,6.08
2019-02-23T00:20:32.375Z,6.00
2019-02-23T00:22:59.111Z,5.99
2019-02-23T00:25:25.870Z,5.85
2019-02-23T00:27:52.597Z,5.91
2019-02-23T00:30:19.341Z,5.90
2019-02-23T00:32:46.081Z,5.96
2019-02-23T00:35:12.809Z,5.93
2019-02-23T00:37:39.542Z,6.00
2019-02-23T00:40:06.334Z,5.88
2019-02-23T00:42:33.057Z,5.92
2019-02-23T00:44:59.802Z,6.02
2019-02-23T00:47:26.525Z,6.12
2019-02-23T00:49:53.254Z,6.06
2019-02-23T00:52:19.989Z,5.89
2019-02-23T00:54:46.707Z,5.91
2019-02-23T00:57:13.441Z,5.89
2019-02-23T00:59:40.153Z,5.84
2019-02-23T01:02:06.934Z,5.67
2019-02-23T01:04:33.641Z,5.70
2019-02-23T01:07:00.383Z,5.58
2019-02-23T01:09:27.102Z,5.47
2019-02-23T01:11:53.826Z,5.43
2019-02-23T01:14:20.626Z,5.39
2019-02-23T01:16:47.434Z,5.33
2019-02-23T01:19:14.162Z,5.31
2019-02-23T01:21:40.902Z,5.40
2019-02-23T01:24:07.617Z,5.39
2019-02-23T01:26:34.361Z,5.32
2019-02-23T01:29:01.086Z,5.34
2019-02-23T01:31:27.829Z,5.36
2019-02-23T01:33:54.541Z,5.49
2019-02-23T01:36:21.282Z,5.28
2019-02-23T01:38:48.001Z,5.26
2019-02-23T01:41:14.721Z,5.32
2019-02-23T01:43:41.442Z,5.32
2019-02-23T01:46:08.189Z,5.33
2019-02-23T01:48:34.906Z,5.11
2019-02-23T01:51:01.669Z,5.09
2019-02-23T01:53:28.393Z,5.08
2019-02-23T01:55:55.129Z,5.04
2019-02-23T01:58:21.865Z,4.95
2019-02-23T02:00:48.597Z,4.72
2019-02-23T02:03:15.314Z,4.63
2019-02-23T02:05:42.077Z,4.74
2019-02-23T02:08:08.812Z,4.74
2019-02-23T02:10:35.689Z,4.62
2019-02-23T02:13:02.422Z,4.71
2019-02-23T02:15:29.142Z,4.60
2019-02-23T02:17:55.878Z,4.54
2019-02-23T02:20:22.609Z,4.47
2019-02-23T02:22:49.360Z,4.52
2019-02-23T02:25:16.090Z,4.49
2019-02-23T02:27:42.816Z,4.50
2019-02-23T02:30:10.121Z,4.46
2019-02-23T02:32:36.845Z,4.42
2019-02-23T02:35:03.779Z,4.39
2019-02-23T02:37:30.504Z,4.25
2019-02-23T02:39:57.218Z,4.21
2019-02-23T02:42:23.950Z,4.23
2019-02-23T02:44:50.661Z,4.23
2019-02-23T02:47:17.398Z,4.20
2019-02-23T02:49:44.115Z,4.13
2019-02-23T02:52:10.845Z,4.10
2019-02-23T02:54:37.564Z,4.09
2019-02-23T02:57:04.348Z,4.09
2019-02-23T02:59:31.050Z,4.04
2019-02-23T03:01:58.912Z,4.08
2019-02-23T03:04:24.515Z,4.00
2019-02-23T03:06:51.242Z,4.03
2019-02-23T03:09:17.958Z,3.92
2019-02-23T03:11:44.709Z,3.89
2019-02-23T03:14:11.474Z,3.97
2019-02-23T03:16:38.196Z,3.98
2019-02-23T03:19:04.937Z,4.04
2019-02-23T03:21:31.645Z,4.04
2019-02-23T03:23:58.385Z,4.04
2019-02-23T03:26:25.110Z,4.13
2019-02-23T03:28:51.833Z,3.91
2019-02-23T03:31:18.699Z,3.92
2019-02-23T03:33:45.440Z,3.87
2019-02-23T03:36:12.157Z,3.81
2019-02-23T03:38:38.889Z,3.77
2019-02-23T03:41:05.681Z,3.78
2019-02-23T03:43:32.410Z,3.77
2019-02-23T03:45:59.147Z,3.70
2019-02-23T03:48:25.991Z,3.71
2019-02-23T03:50:52.714Z,3.55
2019-02-23T03:53:19.492Z,3.55
2019-02-23T03:55:46.205Z,3.56
2019-02-23T03:58:13.022Z,3.47
2019-02-23T04:00:39.797Z,3.44
2019-02-23T04:03:06.561Z,3.36
2019-02-23T04:05:33.281Z,3.42
2019-02-23T04:08:00.010Z,3.38
2019-02-23T04:10:26.717Z,3.28
2019-02-23T04:12:53.442Z,3.33
2019-02-23T04:15:20.278Z,3.37
2019-02-23T04:17:47.018Z,3.36
2019-02-23T04:20:13.727Z,3.24
2019-02-23T04:22:40.451Z,3.22
2019-02-23T04:25:07.209Z,3.26
2019-02-23T04:27:33.918Z,3.18
2019-02-23T04:30:00.650Z,3.18
2019-02-23T04:32:27.375Z,3.41
2019-02-23T04:34:54.099Z,3.39
2019-02-23T04:37:20.988Z,3.33
2019-02-23T04:39:47.707Z,3.45
2019-02-23T04:42:14.409Z,3.38
2019-02-23T04:44:41.141Z,3.34
2019-02-23T04:47:07.857Z,3.35
2019-02-23T04:49:34.594Z,3.34
2019-02-23T04:52:01.347Z,3.30
2019-02-23T04:54:28.075Z,3.20
2019-02-23T04:56:54.807Z,3.18
2019-02-23T04:59:21.548Z,2.87
2019-02-23T05:01:48.262Z,2.82
2019-02-23T05:04:14.990Z,2.82
2019-02-23T05:06:41.718Z,2.63
2019-02-23T05:09:08.445Z,2.55
2019-02-23T05:11:35.161Z,2.62
2019-02-23T05:14:01.902Z,2.71
2019-02-23T05:16:28.617Z,2.83
2019-02-23T05:18:55.343Z,2.74
2019-02-23T05:21:26.572Z,2.68
2019-02-23T05:23:48.794Z,2.70
2019-02-23T05:26:15.507Z,2.71
2019-02-23T05:28:42.243Z,2.63
2019-02-23T05:31:08.972Z,2.61
2019-02-23T05:33:35.710Z,2.51
2019-02-23T05:36:02.418Z,2.55
2019-02-23T05:38:29.158Z,2.58
2019-02-23T05:40:55.882Z,2.66
2019-02-23T05:43:22.623Z,2.63
2019-02-23T05:45:49.346Z,2.71
2019-02-23T05:48:19.285Z,2.55
2019-02-23T05:50:46.001Z,2.72
2019-02-23T05:53:12.829Z,2.63
2019-02-23T05:55:39.547Z,2.65
2019-02-23T05:58:06.277Z,2.60
2019-02-23T06:00:33.010Z,2.50
2019-02-23T06:02:59.737Z,2.60
2019-02-23T06:05:26.455Z,2.56
2019-02-23T06:07:53.178Z,2.53
2019-02-23T06:10:19.895Z,2.38
2019-02-23T06:12:46.606Z,2.38
2019-02-23T06:15:13.331Z,2.33
2019-02-23T06:17:40.078Z,2.27
2019-02-23T06:20:08.050Z,2.23
2019-02-23T06:22:34.749Z,2.20
2019-02-23T06:25:01.531Z,2.18
2019-02-23T06:27:28.245Z,2.32
2019-02-23T06:29:55.038Z,2.40
2019-02-23T06:32:22.058Z,2.27
2019-02-23T06:34:48.810Z,2.28
2019-02-23T06:37:15.533Z,2.20
2019-02-23T06:39:42.275Z,2.09
2019-02-23T06:42:08.987Z,2.13
2019-02-23T06:44:35.729Z,2.27
2019-02-23T06:47:02.470Z,2.37
2019-02-23T06:49:29.206Z,2.29
2019-02-23T06:52:03.959Z,2.46
2019-02-23T06:54:22.658Z,2.41
2019-02-23T06:56:49.395Z,2.61
2019-02-23T06:59:16.150Z,2.45
2019-02-23T07:01:42.893Z,2.52
2019-02-23T07:04:09.615Z,2.68
2019-02-23T07:06:36.554Z,2.71
2019-02-23T07:09:04.274Z,2.74
2019-02-23T07:11:31.054Z,2.76
2019-02-23T07:13:57.806Z,2.79
2019-02-23T07:16:24.530Z,2.89
2019-02-23T07:18:51.271Z,2.98
2019-02-23T07:21:18.007Z,3.16
2019-02-23T07:23:44.742Z,2.94
2019-02-23T07:26:11.481Z,3.03
2019-02-23T07:28:38.223Z,3.10
2019-02-23T07:31:04.950Z,3.04
2019-02-23T07:33:33.112Z,3.10
2019-02-23T07:35:58.430Z,3.15
2019-02-23T07:38:25.129Z,3.24
2019-02-23T07:40:51.866Z,3.35
2019-02-23T07:43:18.586Z,3.44
2019-02-23T07:45:45.345Z,3.53
2019-02-23T07:48:12.065Z,3.51
2019-02-23T07:50:38.798Z,3.56
2019-02-23T07:53:05.548Z,3.45
2019-02-23T07:55:32.285Z,3.76
2019-02-23T07:57:59.006Z,3.62
2019-02-23T08:00:25.729Z,3.68
2019-02-23T08:02:52.434Z,3.67
2019-02-23T08:05:19.167Z,3.73
2019-02-23T08:07:45.888Z,3.80
2019-02-23T08:10:12.636Z,3.79
2019-02-23T08:12:39.345Z,3.84
2019-02-23T08:15:06.710Z,3.86
2019-02-23T08:17:33.435Z,3.86
2019-02-23T08:20:00.287Z,4.00
2019-02-23T08:22:36.866Z,4.02
2019-02-23T08:24:53.757Z,4.09
2019-02-23T08:27:20.598Z,4.12
2019-02-23T08:29:47.338Z,4.23
2019-02-23T08:32:14.170Z,4.46
2019-02-23T08:34:40.955Z,4.61
2019-02-23T08:37:07.706Z,4.61
2019-02-23T08:39:34.430Z,4.43
2019-02-23T08:42:01.180Z,4.47
2019-02-23T08:44:27.897Z,4.47
2019-02-23T08:46:54.648Z,4.43
2019-02-23T08:49:21.366Z,4.64
2019-02-23T08:51:48.205Z,4.56
2019-02-23T08:54:14.916Z,4.74
2019-02-23T08:56:41.655Z,4.69
2019-02-23T08:59:08.365Z,5.01
2019-02-23T09:01:35.100Z,4.73
2019-02-23T09:04:02.062Z,4.90
2019-02-23T09:06:28.822Z,5.07
2019-02-23T09:08:55.542Z,5.16
2019-02-23T09:11:22.274Z,4.96
2019-02-23T09:13:49.002Z,4.93
2019-02-23T09:16:15.822Z,5.34
2019-02-23T09:18:42.549Z,5.55
2019-02-23T09:21:09.438Z,5.31
2019-02-23T09:23:36.156Z,5.59
2019-02-23T09:26:02.903Z,5.66
2019-02-23T09:28:29.633Z,5.43
2019-02-23T09:30:56.397Z,5.44
2019-02-23T09:33:23.118Z,5.51
2019-02-23T09:35:49.866Z,5.68
2019-02-23T09:38:16.593Z,5.83
2019-02-23T09:40:43.346Z,5.65
2019-02-23T09:43:10.069Z,5.55
2019-02-23T09:45:36.830Z,5.90
2019-02-23T09:48:03.549Z,5.75
2019-02-23T09:50:30.298Z,5.72
2019-02-23T09:52:57.022Z,5.75
2019-02-23T09:55:23.749Z,5.86
2019-02-23T09:57:50.499Z,5.90
2019-02-23T10:00:17.246Z,6.02
2019-02-23T10:02:43.994Z,6.03
2019-02-23T10:05:10.816Z,6.16
2019-02-23T10:07:37.566Z,6.23
2019-02-23T10:10:04.562Z,6.15
2019-02-23T10:12:31.302Z,6.15
2019-02-23T10:14:58.026Z,6.42
2019-02-23T10:17:24.770Z,6.50
2019-02-23T10:19:51.490Z,6.36
2019-02-23T10:22:18.242Z,6.55
2019-02-23T10:24:44.980Z,6.97
2019-02-23T10:27:11.725Z,6.86
2019-02-23T10:29:38.456Z,6.87
2019-02-23T10:32:05.201Z,6.93
2019-02-23T10:34:32.009Z,7.19
2019-02-23T10:36:58.749Z,7.10
2019-02-23T10:39:25.481Z,7.22
2019-02-23T10:41:52.218Z,7.22
2019-02-23T10:44:18.948Z,7.04
2019-02-23T10:46:45.682Z,7.50
2019-02-23T10:49:12.574Z,7.71
2019-02-23T10:51:39.322Z,7.61
2019-02-23T10:54:06.041Z,7.30
2019-02-23T10:56:32.789Z,7.30
2019-02-23T10:58:59.533Z,7.38
2019-02-23T11:01:26.276Z,7.68
2019-02-23T11:03:52.998Z,7.64
2019-02-23T11:06:19.725Z,7.85
2019-02-23T11:08:46.470Z,7.83
2019-02-23T11:11:13.193Z,7.82
2019-02-23T11:13:39.930Z,8.15
2019-02-23T11:16:06.649Z,8.13
2019-02-23T11:18:33.385Z,7.96
2019-02-23T11:21:00.117Z,7.98
2019-02-23T11:23:26.869Z,8.07
2019-02-23T11:25:53.593Z,8.33
2019-02-23T11:28:20.327Z,8.49
2019-02-23T11:30:47.055Z,8.30
2019-02-23T11:33:13.790Z,8.51
2019-02-23T11:35:40.534Z,8.52
2019-02-23T11:38:07.274Z,8.76
2019-02-23T11:40:33.994Z,8.33
2019-02-23T11:43:00.730Z,8.46
2019-02-23T11:45:27.598Z,8.33
2019-02-23T11:47:54.334Z,8.42
2019-02-23T11:50:21.135Z,8.33
2019-02-23T11:52:47.869Z,8.53
2019-02-23T11:55:14.605Z,8.87
2019-02-23T11:57:41.365Z,8.99
2019-02-23T12:00:08.309Z,8.69
2019-02-23T12:02:35.071Z,8.69
2019-02-23T12:05:01.794Z,8.65
2019-02-23T12:07:28.537Z,8.87
2019-02-23T12:09:55.258Z,8.63
2019-02-23T12:12:21.997Z,8.65
2019-02-23T12:14:48.715Z,8.74
2019-02-23T12:17:15.445Z,8.58
2019-02-23T12:19:42.165Z,9.00
2019-02-23T12:22:12.370Z,9.14
2019-02-23T12:24:35.649Z,9.17
2019-02-23T12:27:02.373Z,9.68
2019-02-23T12:29:29.109Z,9.83
2019-02-23T12:31:55.825Z,9.63
2019-02-23T12:34:22.591Z,9.47
2019-02-23T12:36:49.334Z,9.57
2019-02-23T12:39:16.079Z,9.58
2019-02-23T12:41:42.801Z,9.74
2019-02-23T12:44:09.538Z,10.02
2019-02-23T12:46:36.266Z,9.81
2019-02-23T12:49:03.015Z,9.63
2019-02-23T12:51:29.740Z,9.70
2019-02-23T12:53:56.470Z,9.59
2019-02-23T12:56:23.189Z,9.83
2019-02-23T12:58:49.957Z,9.65
2019-02-23T13:01:16.697Z,9.55
2019-02-23T13:03:43.421Z,9.84
2019-02-23T13:06:10.138Z,9.77
2019-02-23T13:08:48.597Z,9.99
2019-02-23T13:11:15.318Z,10.21
2019-02-23T13:14:03.262Z,9.94
2019-02-23T13:16:42.221Z,10.24
2019-02-23T13:19:24.402Z,10.07
2019-02-23T13:22:20.029Z,9.93
2019-02-23T13:25:32.774Z,10.22
2019-02-23T13:28:40.389Z,10.10
2019-02-23T13:31:26.127Z,10.16
2019-02-23T13:34:29.305Z,10.14
2019-02-23T13:37:07.138Z,10.28
2019-02-23T13:39:49.066Z,10.16
2019-02-23T13:42:34.102Z,10.10
2019-02-23T13:45:10.112Z,9.96
2019-02-23T13:47:58.916Z,10.22
2019-02-23T13:50:51.059Z,10.05
2019-02-23T13:53:32.936Z,9.98
2019-02-23T13:56:30.561Z,10.04
2019-02-23T13:59:22.853Z,10.08
2019-02-23T14:02:06.029Z,10.08
2019-02-23T14:04:41.744Z,10.31
2019-02-23T14:07:27.795Z,10.31
2019-02-23T14:10:19.187Z,10.22
2019-02-23T14:12:56.386Z,10.09
2019-02-23T14:15:55.233Z,10.23
2019-02-23T14:18:46.141Z,10.33
2019-02-23T14:21:32.642Z,10.35
2019-02-23T14:24:13.076Z,10.30
2019-02-23T14:26:51.943Z,10.17
2019-02-23T14:29:44.337Z,10.29
2019-02-23T14:32:21.047Z,10.35
2019-02-23T14:35:00.617Z,10.30
2019-02-23T14:38:01.162Z,10.15
2019-02-23T14:41:07.615Z,10.14
2019-02-23T14:44:16.450Z,10.04
2019-02-23T14:47:09.878Z,10.09
2019-02-23T14:50:03.299Z,10.15
2019-02-23T14:52:40.786Z,10.11
2019-02-23T14:55:17.366Z,10.07
2019-02-23T14:57:58.982Z,10.05
2019-02-23T15:00:51.893Z,10.04
2019-02-23T15:03:38.394Z,9.97
2019-02-23T15:06:14.571Z,10.06
2019-02-23T15:08:52.325Z,9.94
2019-02-23T15:11:31.143Z,10.03
2019-02-23T15:14:08.115Z,9.95
2019-02-23T15:16:57.914Z,10.08
2019-02-23T15:19:36.230Z,9.98
2019-02-23T15:22:17.232Z,10.09
2019-02-23T15:25:12.517Z,9.96
2019-02-23T15:27:38.802Z,9.92
2019-02-23T15:30:18.460Z,9.85
2019-02-23T15:33:30.214Z,9.82
2019-02-23T15:36:28.662Z,9.67
2019-02-23T15:39:24.546Z,9.72
2019-02-23T15:42:10.655Z,9.63
2019-02-23T15:44:56.613Z,9.69
2019-02-23T15:47:50.676Z,9.60
2019-02-23T15:50:17.584Z,9.43
2019-02-23T15:52:44.319Z,9.57
2019-02-23T15:55:11.021Z,9.46
2019-02-23T15:57:37.774Z,9.42
2019-02-23T16:00:04.701Z,9.41
2019-02-23T16:02:31.442Z,9.33
2019-02-23T16:04:58.173Z,9.37
2019-02-23T16:07:24.902Z,9.35
2019-02-23T16:09:51.622Z,9.27
2019-02-23T16:12:18.381Z,9.14
2019-02-23T16:14:45.077Z,9.20
2019-02-23T16:17:11.898Z,9.01
2019-02-23T16:19:38.677Z,8.93
2019-02-23T16:22:05.346Z,8.91
2019-02-23T16:24:32.058Z,8.91
2019-02-23T16:26:58.798Z,8.78
2019-02-23T16:29:25.528Z,8.78
2019-02-23T16:31:52.539Z,8.76
2019-02-23T16:34:19.265Z,8.72
2019-02-23T16:36:46.006Z,8.49
2019-02-23T16:39:12.734Z,8.31
2019-02-23T16:41:39.694Z,8.30
2019-02-23T16:44:06.920Z,8.31
2019-02-23T16:46:33.655Z,8.20
2019-02-23T16:49:00.366Z,8.11
2019-02-23T16:51:27.134Z,8.04
2019-02-23T16:53:53.856Z,7.96
2019-02-23T16:56:20.574Z,7.88
2019-02-23T16:58:47.309Z,7.90
2019-02-23T17:01:14.030Z,7.78
2019-02-23T17:03:40.766Z,7.76
2019-02-23T17:06:07.595Z,7.67
2019-02-23T17:08:34.362Z,7.63
2019-02-23T17:11:01.319Z,7.57
2019-02-23T17:13:28.069Z,7.54
2019-02-23T17:15:54.789Z,7.58
2019-02-23T17:18:21.660Z,7.48
2019-02-23T17:20:48.245Z,7.50
2019-02-23T17:23:15.053Z,7.47
2019-02-23T17:25:41.733Z,7.36
2019-02-23T17:28:08.478Z,7.29
2019-02-23T17:30:35.213Z,7.29
2019-02-23T17:33:01.958Z,7.23
2019-02-23T17:35:28.676Z,7.24
2019-02-23T17:37:55.439Z,7.20
2019-02-23T17:40:22.158Z,7.05
2019-02-23T17:42:48.979Z,6.99
2019-02-23T17:45:15.650Z,6.86
2019-02-23T17:47:42.402Z,6.80
2019-02-23T17:50:09.118Z,6.79
2019-02-23T17:52:35.898Z,6.75
2019-02-23T17:55:02.650Z,6.62
2019-02-23T17:57:29.387Z,6.63
2019-02-23T17:59:56.189Z,6.71
2019-02-23T18:02:22.930Z,6.60
2019-02-23T18:04:49.680Z,6.51
2019-02-23T18:07:16.430Z,6.48
2019-02-23T18:09:43.157Z,6.43
2019-02-23T18:12:09.907Z,6.39
2019-02-23T18:14:37.570Z,6.32
2019-02-23T18:17:04.333Z,6.29
2019-02-23T18:19:31.158Z,6.28
2019-02-23T18:21:57.881Z,6.34
2019-02-23T18:24:24.629Z,6.34
2019-02-23T18:26:51.453Z,6.35
2019-02-23T18:29:18.191Z,6.26
2019-02-23T18:31:44.906Z,6.30
2019-02-23T18:34:11.647Z,6.28
2019-02-23T18:36:38.366Z,6.35
2019-02-23T18:39:05.137Z,6.36
2019-02-23T18:41:31.864Z,6.51
2019-02-23T18:43:58.617Z,6.43
2019-02-23T18:46:25.337Z,6.37
2019-02-23T18:48:52.102Z,6.28
2019-02-23T18:51:19.507Z,6.36
2019-02-23T18:53:46.222Z,6.24
2019-02-23T18:56:12.952Z,6.16
2019-02-23T18:58:39.701Z,6.13
2019-02-23T19:01:06.429Z,6.07
2019-02-23T19:03:33.164Z,5.99
2019-02-23T19:05:59.886Z,6.08
2019-02-23T19:08:26.625Z,6.10
2019-02-23T19:10:53.345Z,5.97
2019-02-23T19:13:20.090Z,5.89
2019-02-23T19:15:46.895Z,5.98
2019-02-23T19:18:13.742Z,5.68
2019-02-23T19:20:40.477Z,5.67
2019-02-23T19:23:07.254Z,5.68
2019-02-23T19:25:33.998Z,5.58
2019-02-23T19:28:00.754Z,5.80
2019-02-23T19:30:27.532Z,5.61
2019-02-23T19:32:54.257Z,5.59
2019-02-23T19:35:20.994Z,5.50
2019-02-23T19:37:47.713Z,5.42
2019-02-23T19:40:14.465Z,5.39
2019-02-23T19:42:41.181Z,5.24
2019-02-23T19:45:08.025Z,5.20
2019-02-23T19:47:34.817Z,5.27
2019-02-23T19:50:07.321Z,5.31
2019-02-23T19:52:34.164Z,5.44
2019-02-23T19:55:00.973Z,5.17
2019-02-23T19:57:27.802Z,5.12
2019-02-23T19:59:54.537Z,5.06
2019-02-23T20:02:21.262Z,5.05
2019-02-23T20:04:48.243Z,5.09
2019-02-23T20:07:14.967Z,4.98
2019-02-23T20:09:41.706Z,5.04
2019-02-23T20:12:08.423Z,5.00
2019-02-23T20:14:35.182Z,5.09
2019-02-23T20:17:02.034Z,5.11
2019-02-23T20:19:28.778Z,5.00
2019-02-23T20:21:55.514Z,4.98
2019-02-23T20:24:22.254Z,4.86
2019-02-23T20:26:55.390Z,4.86
2019-02-23T20:29:15.695Z,4.68
2019-02-23T20:31:42.442Z,4.78
2019-02-23T20:34:09.179Z,4.82
2019-02-23T20:36:35.953Z,4.67
2019-02-23T20:39:03.113Z,4.65
2019-02-23T20:41:29.828Z,4.67
2019-02-23T20:43:56.571Z,4.77
2019-02-23T20:46:23.323Z,4.96
2019-02-23T20:48:50.050Z,4.99
2019-02-23T20:51:16.765Z,4.99
2019-02-23T20:53:43.507Z,4.93
2019-02-23T20:56:10.233Z,5.19
2019-02-23T20:58:36.957Z,5.08
2019-02-23T21:01:03.695Z,5.02
2019-02-23T21:03:30.473Z,5.01
2019-02-23T21:05:57.201Z,4.93
2019-02-23T21:08:23.918Z,4.80
2019-02-23T21:10:50.662Z,4.73
2019-02-23T21:13:17.538Z,4.80
2019-02-23T21:15:44.298Z,4.70
2019-02-23T21:18:11.018Z,4.72
2019-02-23T21:20:37.762Z,4.50
2019-02-23T21:23:04.474Z,4.62
2019-02-23T21:25:31.432Z,4.45
2019-02-23T21:27:57.936Z,4.32
2019-02-23T21:30:24.681Z,4.16
2019-02-23T21:32:51.398Z,4.18
2019-02-23T21:35:18.142Z,4.14
2019-02-23T21:37:44.885Z,4.13
2019-02-23T21:40:12.221Z,4.17
2019-02-23T21:42:38.329Z,4.27
2019-02-23T21:45:05.106Z,4.17
2019-02-23T21:47:31.833Z,4.00
2019-02-23T21:49:58.581Z,3.95
2019-02-23T21:52:25.308Z,3.84
2019-02-23T21:54:52.054Z,3.79
2019-02-23T21:57:22.266Z,3.68
2019-02-23T21:59:45.502Z,3.75
2019-02-23T22:02:12.206Z,3.86
2019-02-23T22:04:38.942Z,3.95
2019-02-23T22:07:05.658Z,3.91
2019-02-23T22:09:32.378Z,4.00
2019-02-23T22:11:59.088Z,4.00
2019-02-23T22:14:25.815Z,3.98
2019-02-23T22:16:52.546Z,3.90
2019-02-23T22:19:19.301Z,3.82
2019-02-23T22:21:46.104Z,3.92
2019-02-23T22:24:12.833Z,3.79
2019-02-23T22:26:39.576Z,3.73
2019-02-23T22:29:06.278Z,3.64
2019-02-23T22:31:33.009Z,3.46
2019-02-23T22:33:59.726Z,3.52
2019-02-23T22:36:26.478Z,3.60
2019-02-23T22:38:53.203Z,3.72
2019-02-23T22:41:20.029Z,3.67
2019-02-23T22:43:46.761Z,3.66
2019-02-23T22:46:13.498Z,3.60
2019-02-23T22:48:40.217Z,3.67
2019-02-23T22:51:06.949Z,3.68
2019-02-23T22:53:33.662Z,3.57
2019-02-23T22:56:00.389Z,3.61
2019-02-23T22:58:27.115Z,3.56
2019-02-23T23:00:57.714Z,3.56
2019-02-23T23:03:24.438Z,3.35
2019-02-23T23:05:51.158Z,3.39
2019-02-23T23:08:17.946Z,3.30
2019-02-23T23:10:44.721Z,3.32
2019-02-23T23:13:11.450Z,3.35
2019-02-23T23:15:38.205Z,3.27
2019-02-23T23:18:04.929Z,3.08
2019-02-23T23:20:31.706Z,3.00
2019-02-23T23:22:58.423Z,3.05
2019-02-23T23:25:25.148Z,3.02
2019-02-23T23:27:51.862Z,2.86
2019-02-23T23:30:18.569Z,2.84
2019-02-23T23:32:45.297Z,2.73
2019-02-23T23:35:12.006Z,2.66
2019-02-23T23:37:38.737Z,2.65
2019-02-23T23:40:05.487Z,2.57
2019-02-23T23:42:32.222Z,2.64
2019-02-23T23:44:58.942Z,2.71
2019-02-23T23:47:25.673Z,2.55
2019-02-23T23:49:52.379Z,2.43
2019-02-23T23:52:19.122Z,2.50
2019-02-23T23:54:45.820Z,2.46
2019-02-23T23:57:12.559Z,2.34
2019-02-23T23:59:39.283Z,2.19
